Iberia, Ohio
Current Conditions -  °F | °C
As of 10:53 AM on Sunday 21 Dec 2014 (Local Time) from KMNN Reporting Station
Haze Haze  
Wind Chill: -4°   Ceiling: 2400
Heat Index:   Visibility: 4mi
Dew Point: -4°   Wind: 7mph
Humidity: 73%   Direction: 180°S
Pressure: 30.32"   Gusts: NA
Location:  40.67°N, 82.84°W
Report Text: KMNN 211553Z AUTO 18006KT 4SM HZ BKN024 00/M04 A3032 RMK AO2 SLP279 T00001044 TSNO
Loading
Personal Weather Stations






























Interactive Weather Map New forecast layout! Learn more

10-Day Weather Forecast

Advertisements
Track Severe Weather on mobile